sensor_id;sensor_type;location;lat;lon;timestamp;temperature;humidity
30473;DHT22;17263;48.160;11.452;2023-04-25T00:01:47;7.90;99.90
30473;DHT22;17263;48.160;11.452;2023-04-25T00:04:13;7.90;99.90
30473;DHT22;17263;48.160;11.452;2023-04-25T00:06:39;8.00;99.90
30473;DHT22;17263;48.160;11.452;2023-04-25T00:09:06;8.00;99.90
30473;DHT22;17263;48.160;11.452;2023-04-25T00:11:36;8.00;99.90
30473;DHT22;17263;48.160;11.452;2023-04-25T00:14:04;8.10;99.90
30473;DHT22;17263;48.160;11.452;2023-04-25T00:16:30;8.10;99.90
30473;DHT22;17263;48.160;11.452;2023-04-25T00:19:00;8.10;99.90
30473;DHT22;17263;48.160;11.452;2023-04-25T00:21:27;8.20;99.90
30473;DHT22;17263;48.160;11.452;2023-04-25T00:23:54;8.20;99.90
30473;DHT22;17263;48.160;11.452;2023-04-25T00:26:20;8.20;99.90
30473;DHT22;17263;48.160;11.452;2023-04-25T00:28:47;8.30;99.90
30473;DHT22;17263;48.160;11.452;2023-04-25T00:31:14;8.30;99.90
30473;DHT22;17263;48.160;11.452;2023-04-25T00:33:40;8.40;99.90
30473;DHT22;17263;48.160;11.452;2023-04-25T00:36:06;8.30;99.90
30473;DHT22;17263;48.160;11.452;2023-04-25T00:38:32;8.30;99.90
30473;DHT22;17263;48.160;11.452;2023-04-25T00:40:58;8.20;99.90
30473;DHT22;17263;48.160;11.452;2023-04-25T00:43:28;8.20;99.90
30473;DHT22;17263;48.160;11.452;2023-04-25T00:45:54;8.20;99.90
30473;DHT22;17263;48.160;11.452;2023-04-25T00:48:23;8.10;99.90
30473;DHT22;17263;48.160;11.452;2023-04-25T00:50:55;8.00;99.90
30473;DHT22;17263;48.160;11.452;2023-04-25T00:53:22;8.00;99.90
30473;DHT22;17263;48.160;11.452;2023-04-25T00:55:48;8.00;99.90
30473;DHT22;17263;48.160;11.452;2023-04-25T00:58:17;7.90;99.90
30473;DHT22;17263;48.160;11.452;2023-04-25T01:00:48;7.90;99.90
30473;DHT22;17263;48.160;11.452;2023-04-25T01:03:16;7.80;99.90
30473;DHT22;17263;48.160;11.452;2023-04-25T01:05:45;7.80;99.90
30473;DHT22;17263;48.160;11.452;2023-04-25T01:08:12;7.70;99.90
30473;DHT22;17263;48.160;11.452;2023-04-25T01:10:39;7.70;99.90
30473;DHT22;17263;48.160;11.452;2023-04-25T01:13:06;7.70;99.90
30473;DHT22;17263;48.160;11.452;2023-04-25T01:15:32;7.70;99.90
30473;DHT22;17263;48.160;11.452;2023-04-25T01:17:58;7.70;99.90
30473;DHT22;17263;48.160;11.452;2023-04-25T01:20:26;7.70;99.90
30473;DHT22;17263;48.160;11.452;2023-04-25T01:22:55;7.70;99.90
30473;DHT22;17263;48.160;11.452;2023-04-25T01:25:22;7.60;99.90
30473;DHT22;17263;48.160;11.452;2023-04-25T01:27:48;7.60;99.90
30473;DHT22;17263;48.160;11.452;2023-04-25T01:30:14;7.60;99.90
30473;DHT22;17263;48.160;11.452;2023-04-25T01:32:41;7.60;99.90
30473;DHT22;17263;48.160;11.452;2023-04-25T01:35:10;7.50;99.90
30473;DHT22;17263;48.160;11.452;2023-04-25T01:37:40;7.50;99.90
30473;DHT22;17263;48.160;11.452;2023-04-25T01:40:11;7.50;99.90
30473;DHT22;17263;48.160;11.452;2023-04-25T01:42:42;7.50;99.90
30473;DHT22;17263;48.160;11.452;2023-04-25T01:45:10;7.40;99.90
30473;DHT22;17263;48.160;11.452;2023-04-25T01:47:37;7.40;99.90
30473;DHT22;17263;48.160;11.452;2023-04-25T01:50:04;7.30;99.90
30473;DHT22;17263;48.160;11.452;2023-04-25T01:52:30;7.30;99.90
30473;DHT22;17263;48.160;11.452;2023-04-25T01:54:57;7.20;99.90
30473;DHT22;17263;48.160;11.452;2023-04-25T01:57:23;7.20;99.90
30473;DHT22;17263;48.160;11.452;2023-04-25T01:59:50;7.10;99.90
30473;DHT22;17263;48.160;11.452;2023-04-25T02:02:16;7.10;99.90
30473;DHT22;17263;48.160;11.452;2023-04-25T02:04:42;7.10;99.90
30473;DHT22;17263;48.160;11.452;2023-04-25T02:07:08;7.00;99.90
30473;DHT22;17263;48.160;11.452;2023-04-25T02:09:34;7.00;99.90
30473;DHT22;17263;48.160;11.452;2023-04-25T02:12:00;7.00;99.90
30473;DHT22;17263;48.160;11.452;2023-04-25T02:14:26;7.00;99.90
30473;DHT22;17263;48.160;11.452;2023-04-25T02:16:52;7.00;99.90
30473;DHT22;17263;48.160;11.452;2023-04-25T02:19:18;7.00;99.90
30473;DHT22;17263;48.160;11.452;2023-04-25T02:21:44;7.00;99.90
30473;DHT22;17263;48.160;11.452;2023-04-25T02:24:10;7.00;99.90
30473;DHT22;17263;48.160;11.452;2023-04-25T02:26:36;7.00;99.90
30473;DHT22;17263;48.160;11.452;2023-04-25T02:29:02;7.10;99.90
30473;DHT22;17263;48.160;11.452;2023-04-25T02:31:28;7.10;99.90
30473;DHT22;17263;48.160;11.452;2023-04-25T02:33:55;7.20;99.90
30473;DHT22;17263;48.160;11.452;2023-04-25T02:36:21;7.20;99.90
30473;DHT22;17263;48.160;11.452;2023-04-25T02:38:47;7.30;99.90
30473;DHT22;17263;48.160;11.452;2023-04-25T02:41:13;7.30;99.90
30473;DHT22;17263;48.160;11.452;2023-04-25T02:43:39;7.30;99.90
30473;DHT22;17263;48.160;11.452;2023-04-25T02:46:05;7.30;99.90
30473;DHT22;17263;48.160;11.452;2023-04-25T02:48:31;7.40;99.90
30473;DHT22;17263;48.160;11.452;2023-04-25T02:50:57;7.40;99.90
30473;DHT22;17263;48.160;11.452;2023-04-25T02:53:23;7.40;99.90
30473;DHT22;17263;48.160;11.452;2023-04-25T02:55:49;7.50;99.90
30473;DHT22;17263;48.160;11.452;2023-04-25T02:58:15;7.50;99.90
30473;DHT22;17263;48.160;11.452;2023-04-25T03:00:41;7.50;99.90
30473;DHT22;17263;48.160;11.452;2023-04-25T03:03:07;7.60;99.90
30473;DHT22;17263;48.160;11.452;2023-04-25T03:05:33;7.70;99.90
30473;DHT22;17263;48.160;11.452;2023-04-25T03:07:59;7.80;99.90
30473;DHT22;17263;48.160;11.452;2023-04-25T03:10:25;7.80;99.90
30473;DHT22;17263;48.160;11.452;2023-04-25T03:12:51;7.90;99.90
30473;DHT22;17263;48.160;11.452;2023-04-25T03:15:17;7.90;99.90
30473;DHT22;17263;48.160;11.452;2023-04-25T03:17:44;8.00;99.90
30473;DHT22;17263;48.160;11.452;2023-04-25T03:20:11;8.00;99.90
30473;DHT22;17263;48.160;11.452;2023-04-25T03:22:37;7.90;99.90
30473;DHT22;17263;48.160;11.452;2023-04-25T03:25:03;7.90;99.90
30473;DHT22;17263;48.160;11.452;2023-04-25T03:27:30;7.90;99.90
30473;DHT22;17263;48.160;11.452;2023-04-25T03:29:56;7.90;99.90
30473;DHT22;17263;48.160;11.452;2023-04-25T03:32:22;7.90;99.90
30473;DHT22;17263;48.160;11.452;2023-04-25T03:34:48;7.90;99.90
30473;DHT22;17263;48.160;11.452;2023-04-25T03:37:14;7.80;99.90
30473;DHT22;17263;48.160;11.452;2023-04-25T03:39:40;7.70;99.90
30473;DHT22;17263;48.160;11.452;2023-04-25T03:42:06;7.70;99.90
30473;DHT22;17263;48.160;11.452;2023-04-25T03:44:32;7.60;99.90
30473;DHT22;17263;48.160;11.452;2023-04-25T03:46:58;7.60;99.90
30473;DHT22;17263;48.160;11.452;2023-04-25T03:49:25;7.50;99.90
30473;DHT22;17263;48.160;11.452;2023-04-25T03:51:51;7.40;99.90
30473;DHT22;17263;48.160;11.452;2023-04-25T03:54:17;7.40;99.90
30473;DHT22;17263;48.160;11.452;2023-04-25T03:56:43;7.30;99.90
30473;DHT22;17263;48.160;11.452;2023-04-25T03:59:09;7.30;99.90
30473;DHT22;17263;48.160;11.452;2023-04-25T04:01:35;7.30;99.90
30473;DHT22;17263;48.160;11.452;2023-04-25T04:04:01;7.30;99.90
30473;DHT22;17263;48.160;11.452;2023-04-25T04:06:27;7.30;99.90
30473;DHT22;17263;48.160;11.452;2023-04-25T04:08:53;7.30;99.90
30473;DHT22;17263;48.160;11.452;2023-04-25T04:11:19;7.20;99.90
30473;DHT22;17263;48.160;11.452;2023-04-25T04:13:46;7.20;99.90
30473;DHT22;17263;48.160;11.452;2023-04-25T04:16:12;7.20;99.90
30473;DHT22;17263;48.160;11.452;2023-04-25T04:18:38;7.10;99.90
30473;DHT22;17263;48.160;11.452;2023-04-25T04:21:04;7.10;99.90
30473;DHT22;17263;48.160;11.452;2023-04-25T04:23:30;7.20;99.90
30473;DHT22;17263;48.160;11.452;2023-04-25T04:25:56;7.20;99.90
30473;DHT22;17263;48.160;11.452;2023-04-25T04:28:22;7.30;99.90
30473;DHT22;17263;48.160;11.452;2023-04-25T04:30:49;7.30;99.90
30473;DHT22;17263;48.160;11.452;2023-04-25T04:33:16;7.30;99.90
30473;DHT22;17263;48.160;11.452;2023-04-25T04:35:45;7.40;99.90
30473;DHT22;17263;48.160;11.452;2023-04-25T04:38:11;7.40;99.90
30473;DHT22;17263;48.160;11.452;2023-04-25T04:40:37;7.40;99.90
30473;DHT22;17263;48.160;11.452;2023-04-25T04:43:03;7.40;99.90
30473;DHT22;17263;48.160;11.452;2023-04-25T04:45:29;7.40;99.90
30473;DHT22;17263;48.160;11.452;2023-04-25T04:47:55;7.40;99.90
30473;DHT22;17263;48.160;11.452;2023-04-25T04:50:21;7.40;99.90
30473;DHT22;17263;48.160;11.452;2023-04-25T04:52:47;7.60;99.90
30473;DHT22;17263;48.160;11.452;2023-04-25T04:55:13;7.50;99.90
30473;DHT22;17263;48.160;11.452;2023-04-25T04:57:39;7.50;99.90
30473;DHT22;17263;48.160;11.452;2023-04-25T05:00:06;7.40;99.90
30473;DHT22;17263;48.160;11.452;2023-04-25T05:02:38;7.40;99.90
30473;DHT22;17263;48.160;11.452;2023-04-25T05:05:05;7.40;99.90
30473;DHT22;17263;48.160;11.452;2023-04-25T05:07:31;7.50;99.90
30473;DHT22;17263;48.160;11.452;2023-04-25T05:09:57;7.50;99.90
30473;DHT22;17263;48.160;11.452;2023-04-25T05:12:23;7.50;99.90
30473;DHT22;17263;48.160;11.452;2023-04-25T05:14:49;7.40;99.90
30473;DHT22;17263;48.160;11.452;2023-04-25T05:17:15;7.50;99.90
30473;DHT22;17263;48.160;11.452;2023-04-25T05:19:41;7.50;99.90
30473;DHT22;17263;48.160;11.452;2023-04-25T05:22:07;7.50;99.90
30473;DHT22;17263;48.160;11.452;2023-04-25T05:24:33;7.50;99.90
30473;DHT22;17263;48.160;11.452;2023-04-25T05:26:59;7.50;99.90
30473;DHT22;17263;48.160;11.452;2023-04-25T05:29:25;7.60;99.90
30473;DHT22;17263;48.160;11.452;2023-04-25T05:31:51;7.60;99.90
30473;DHT22;17263;48.160;11.452;2023-04-25T05:34:18;7.60;99.90
30473;DHT22;17263;48.160;11.452;2023-04-25T05:36:44;7.70;99.90
30473;DHT22;17263;48.160;11.452;2023-04-25T05:39:18;7.60;99.90
30473;DHT22;17263;48.160;11.452;2023-04-25T05:41:44;7.60;99.90
30473;DHT22;17263;48.160;11.452;2023-04-25T05:44:10;7.60;99.90
30473;DHT22;17263;48.160;11.452;2023-04-25T05:46:36;7.60;99.90
30473;DHT22;17263;48.160;11.452;2023-04-25T05:49:02;7.70;99.90
30473;DHT22;17263;48.160;11.452;2023-04-25T05:51:28;7.70;99.90
30473;DHT22;17263;48.160;11.452;2023-04-25T05:53:54;7.80;99.90
30473;DHT22;17263;48.160;11.452;2023-04-25T05:56:20;7.90;99.90
30473;DHT22;17263;48.160;11.452;2023-04-25T05:58:46;7.80;99.90
30473;DHT22;17263;48.160;11.452;2023-04-25T06:01:12;7.70;99.90
30473;DHT22;17263;48.160;11.452;2023-04-25T06:03:38;7.50;99.90
30473;DHT22;17263;48.160;11.452;2023-04-25T06:06:05;7.40;99.90
30473;DHT22;17263;48.160;11.452;2023-04-25T06:08:31;7.40;99.90
30473;DHT22;17263;48.160;11.452;2023-04-25T06:10:57;7.30;99.90
30473;DHT22;17263;48.160;11.452;2023-04-25T06:13:23;7.20;99.90
30473;DHT22;17263;48.160;11.452;2023-04-25T06:15:49;7.20;99.90
30473;DHT22;17263;48.160;11.452;2023-04-25T06:18:16;7.20;99.90
30473;DHT22;17263;48.160;11.452;2023-04-25T06:20:42;7.20;99.90
30473;DHT22;17263;48.160;11.452;2023-04-25T06:23:08;7.20;99.90
30473;DHT22;17263;48.160;11.452;2023-04-25T06:25:34;7.20;99.90
30473;DHT22;17263;48.160;11.452;2023-04-25T06:28:00;7.30;99.90
30473;DHT22;17263;48.160;11.452;2023-04-25T06:30:26;7.40;99.90
30473;DHT22;17263;48.160;11.452;2023-04-25T06:32:52;7.50;99.90
30473;DHT22;17263;48.160;11.452;2023-04-25T06:35:21;7.50;99.90
30473;DHT22;17263;48.160;11.452;2023-04-25T06:37:47;7.80;99.90
30473;DHT22;17263;48.160;11.452;2023-04-25T06:40:13;8.40;99.90
30473;DHT22;17263;48.160;11.452;2023-04-25T06:42:39;9.00;99.90
30473;DHT22;17263;48.160;11.452;2023-04-25T06:45:06;10.10;99.90
30473;DHT22;17263;48.160;11.452;2023-04-25T06:47:32;11.50;99.90
30473;DHT22;17263;48.160;11.452;2023-04-25T06:49:58;12.50;99.90
30473;DHT22;17263;48.160;11.452;2023-04-25T06:52:24;13.30;99.90
30473;DHT22;17263;48.160;11.452;2023-04-25T06:54:50;13.60;99.90
30473;DHT22;17263;48.160;11.452;2023-04-25T06:57:16;13.40;99.90
30473;DHT22;17263;48.160;11.452;2023-04-25T06:59:42;13.20;99.90
30473;DHT22;17263;48.160;11.452;2023-04-25T07:02:08;12.80;99.90
30473;DHT22;17263;48.160;11.452;2023-04-25T07:04:34;12.20;99.90
30473;DHT22;17263;48.160;11.452;2023-04-25T07:07:00;11.80;99.90
30473;DHT22;17263;48.160;11.452;2023-04-25T07:09:28;11.40;99.90
30473;DHT22;17263;48.160;11.452;2023-04-25T07:11:54;11.20;99.90
30473;DHT22;17263;48.160;11.452;2023-04-25T07:14:20;11.10;99.90
30473;DHT22;17263;48.160;11.452;2023-04-25T07:16:46;11.00;99.90
30473;DHT22;17263;48.160;11.452;2023-04-25T07:19:12;11.00;99.90
30473;DHT22;17263;48.160;11.452;2023-04-25T07:21:38;10.90;99.90
30473;DHT22;17263;48.160;11.452;2023-04-25T07:24:05;11.00;99.90
30473;DHT22;17263;48.160;11.452;2023-04-25T07:26:31;11.20;99.90
30473;DHT22;17263;48.160;11.452;2023-04-25T07:28:57;11.40;99.90
30473;DHT22;17263;48.160;11.452;2023-04-25T07:31:23;11.60;99.90
30473;DHT22;17263;48.160;11.452;2023-04-25T07:33:49;11.80;99.90
30473;DHT22;17263;48.160;11.452;2023-04-25T07:36:15;12.00;99.90
30473;DHT22;17263;48.160;11.452;2023-04-25T07:38:41;12.10;99.90
30473;DHT22;17263;48.160;11.452;2023-04-25T07:41:07;12.30;99.90
30473;DHT22;17263;48.160;11.452;2023-04-25T07:43:33;12.60;99.90
30473;DHT22;17263;48.160;11.452;2023-04-25T07:45:59;13.60;99.90
30473;DHT22;17263;48.160;11.452;2023-04-25T07:48:25;14.80;99.90
30473;DHT22;17263;48.160;11.452;2023-04-25T07:50:51;15.60;99.90
30473;DHT22;17263;48.160;11.452;2023-04-25T07:53:17;16.30;99.90
30473;DHT22;17263;48.160;11.452;2023-04-25T07:55:44;17.10;99.90
30473;DHT22;17263;48.160;11.452;2023-04-25T07:58:11;17.70;99.90
30473;DHT22;17263;48.160;11.452;2023-04-25T08:00:37;17.80;99.90
30473;DHT22;17263;48.160;11.452;2023-04-25T08:03:03;17.60;99.90
30473;DHT22;17263;48.160;11.452;2023-04-25T08:05:29;17.40;99.90
30473;DHT22;17263;48.160;11.452;2023-04-25T08:07:55;17.20;99.90
30473;DHT22;17263;48.160;11.452;2023-04-25T08:10:22;16.80;99.90
30473;DHT22;17263;48.160;11.452;2023-04-25T08:12:49;16.50;99.90
30473;DHT22;17263;48.160;11.452;2023-04-25T08:15:15;16.10;99.90
30473;DHT22;17263;48.160;11.452;2023-04-25T08:17:41;15.90;99.90
30473;DHT22;17263;48.160;11.452;2023-04-25T08:20:07;15.50;99.90
30473;DHT22;17263;48.160;11.452;2023-04-25T08:22:34;15.10;99.90
30473;DHT22;17263;48.160;11.452;2023-04-25T08:25:00;14.80;99.90
30473;DHT22;17263;48.160;11.452;2023-04-25T08:27:26;14.50;99.90
30473;DHT22;17263;48.160;11.452;2023-04-25T08:29:52;14.60;99.90
30473;DHT22;17263;48.160;11.452;2023-04-25T08:32:19;15.10;99.90
30473;DHT22;17263;48.160;11.452;2023-04-25T08:34:45;15.80;99.90
30473;DHT22;17263;48.160;11.452;2023-04-25T08:37:11;16.50;99.90
30473;DHT22;17263;48.160;11.452;2023-04-25T08:39:37;17.40;99.90
30473;DHT22;17263;48.160;11.452;2023-04-25T08:42:06;17.80;99.70
30473;DHT22;17263;48.160;11.452;2023-04-25T08:44:35;18.60;96.60
30473;DHT22;17263;48.160;11.452;2023-04-25T08:47:04;19.00;95.40
30473;DHT22;17263;48.160;11.452;2023-04-25T08:49:34;19.50;92.70
30473;DHT22;17263;48.160;11.452;2023-04-25T08:52:03;19.70;91.80
30473;DHT22;17263;48.160;11.452;2023-04-25T08:54:32;19.90;90.00
30473;DHT22;17263;48.160;11.452;2023-04-25T08:57:01;20.40;86.40
30473;DHT22;17263;48.160;11.452;2023-04-25T08:59:28;20.60;80.10
30473;DHT22;17263;48.160;11.452;2023-04-25T09:01:54;20.60;82.60
30473;DHT22;17263;48.160;11.452;2023-04-25T09:04:21;20.80;78.30
30473;DHT22;17263;48.160;11.452;2023-04-25T09:06:47;20.50;76.30
30473;DHT22;17263;48.160;11.452;2023-04-25T09:09:14;20.40;75.30
30473;DHT22;17263;48.160;11.452;2023-04-25T09:11:40;20.30;76.20
30473;DHT22;17263;48.160;11.452;2023-04-25T09:17:03;19.40;76.20
30473;DHT22;17263;48.160;11.452;2023-04-25T09:19:36;18.90;76.40
30473;DHT22;17263;48.160;11.452;2023-04-25T09:22:06;18.30;76.40
30473;DHT22;17263;48.160;11.452;2023-04-25T09:24:40;17.70;77.10
30473;DHT22;17263;48.160;11.452;2023-04-25T09:27:12;16.90;78.10
30473;DHT22;17263;48.160;11.452;2023-04-25T09:29:39;16.30;83.70
30473;DHT22;17263;48.160;11.452;2023-04-25T09:32:21;15.80;84.40
30473;DHT22;17263;48.160;11.452;2023-04-25T09:34:49;15.50;86.50
30473;DHT22;17263;48.160;11.452;2023-04-25T09:37:26;15.40;88.50
30473;DHT22;17263;48.160;11.452;2023-04-25T09:39:54;15.20;88.70
30473;DHT22;17263;48.160;11.452;2023-04-25T09:42:27;15.20;90.30
30473;DHT22;17263;48.160;11.452;2023-04-25T09:44:56;15.10;89.90
30473;DHT22;17263;48.160;11.452;2023-04-25T09:47:26;15.00;90.20
30473;DHT22;17263;48.160;11.452;2023-04-25T09:49:54;14.80;89.70
30473;DHT22;17263;48.160;11.452;2023-04-25T09:52:22;14.50;90.90
30473;DHT22;17263;48.160;11.452;2023-04-25T09:54:49;14.40;91.40
30473;DHT22;17263;48.160;11.452;2023-04-25T09:57:23;14.30;92.10
30473;DHT22;17263;48.160;11.452;2023-04-25T09:59:54;14.30;92.30
30473;DHT22;17263;48.160;11.452;2023-04-25T10:02:24;14.30;92.90
30473;DHT22;17263;48.160;11.452;2023-04-25T10:04:53;14.40;94.90
30473;DHT22;17263;48.160;11.452;2023-04-25T10:07:26;14.70;95.00
30473;DHT22;17263;48.160;11.452;2023-04-25T10:09:58;15.10;93.80
30473;DHT22;17263;48.160;11.452;2023-04-25T10:12:29;15.40;92.20
30473;DHT22;17263;48.160;11.452;2023-04-25T10:14:58;15.40;92.00
30473;DHT22;17263;48.160;11.452;2023-04-25T10:17:26;15.30;91.00
30473;DHT22;17263;48.160;11.452;2023-04-25T10:19:54;15.20;91.90
30473;DHT22;17263;48.160;11.452;2023-04-25T10:22:30;15.00;91.90
30473;DHT22;17263;48.160;11.452;2023-04-25T10:24:58;14.80;91.80
30473;DHT22;17263;48.160;11.452;2023-04-25T10:27:27;14.50;92.00
30473;DHT22;17263;48.160;11.452;2023-04-25T10:30:15;14.20;93.00
30473;DHT22;17263;48.160;11.452;2023-04-25T10:32:42;13.90;91.60
30473;DHT22;17263;48.160;11.452;2023-04-25T10:35:24;13.40;91.60
30473;DHT22;17263;48.160;11.452;2023-04-25T10:37:57;13.00;92.60
30473;DHT22;17263;48.160;11.452;2023-04-25T10:40:24;12.90;92.90
30473;DHT22;17263;48.160;11.452;2023-04-25T10:42:53;12.80;93.90
30473;DHT22;17263;48.160;11.452;2023-04-25T10:45:20;12.60;94.60
30473;DHT22;17263;48.160;11.452;2023-04-25T10:47:46;12.70;95.90
30473;DHT22;17263;48.160;11.452;2023-04-25T10:50:14;12.70;97.10
30473;DHT22;17263;48.160;11.452;2023-04-25T10:52:42;12.80;98.20
30473;DHT22;17263;48.160;11.452;2023-04-25T10:55:08;12.80;99.50
30473;DHT22;17263;48.160;11.452;2023-04-25T10:57:44;12.80;98.60
30473;DHT22;17263;48.160;11.452;2023-04-25T11:00:16;12.80;99.20
30473;DHT22;17263;48.160;11.452;2023-04-25T11:02:58;12.70;99.90
30473;DHT22;17263;48.160;11.452;2023-04-25T11:05:33;12.60;99.90
30473;DHT22;17263;48.160;11.452;2023-04-25T11:08:01;12.50;99.90
30473;DHT22;17263;48.160;11.452;2023-04-25T11:10:29;12.60;99.90
30473;DHT22;17263;48.160;11.452;2023-04-25T11:12:56;12.60;99.90
30473;DHT22;17263;48.160;11.452;2023-04-25T11:15:23;12.50;99.90
30473;DHT22;17263;48.160;11.452;2023-04-25T11:17:51;12.60;99.90
30473;DHT22;17263;48.160;11.452;2023-04-25T11:20:18;12.60;99.90
30473;DHT22;17263;48.160;11.452;2023-04-25T11:22:45;12.60;99.90
30473;DHT22;17263;48.160;11.452;2023-04-25T11:25:13;12.50;99.90
30473;DHT22;17263;48.160;11.452;2023-04-25T11:27:59;12.40;99.90
30473;DHT22;17263;48.160;11.452;2023-04-25T11:30:28;12.40;99.90
30473;DHT22;17263;48.160;11.452;2023-04-25T11:32:56;12.40;99.90
30473;DHT22;17263;48.160;11.452;2023-04-25T11:35:22;12.40;99.90
30473;DHT22;17263;48.160;11.452;2023-04-25T11:37:48;12.40;99.90
30473;DHT22;17263;48.160;11.452;2023-04-25T11:40:15;12.40;99.90
30473;DHT22;17263;48.160;11.452;2023-04-25T11:42:46;12.20;99.90
30473;DHT22;17263;48.160;11.452;2023-04-25T11:45:13;11.90;99.90
30473;DHT22;17263;48.160;11.452;2023-04-25T11:47:39;11.60;99.90
30473;DHT22;17263;48.160;11.452;2023-04-25T11:50:07;11.40;99.90
30473;DHT22;17263;48.160;11.452;2023-04-25T11:52:38;11.20;99.90
30473;DHT22;17263;48.160;11.452;2023-04-25T11:55:15;11.10;99.90
30473;DHT22;17263;48.160;11.452;2023-04-25T11:57:43;10.80;99.90
30473;DHT22;17263;48.160;11.452;2023-04-25T12:02:47;10.70;99.90
30473;DHT22;17263;48.160;11.452;2023-04-25T12:05:16;10.70;99.90
30473;DHT22;17263;48.160;11.452;2023-04-25T12:07:42;10.60;99.90
30473;DHT22;17263;48.160;11.452;2023-04-25T12:10:10;10.60;99.90
30473;DHT22;17263;48.160;11.452;2023-04-25T12:12:38;10.50;99.90
30473;DHT22;17263;48.160;11.452;2023-04-25T12:15:17;10.50;99.90
30473;DHT22;17263;48.160;11.452;2023-04-25T12:17:47;10.60;99.90
30473;DHT22;17263;48.160;11.452;2023-04-25T12:20:15;10.50;99.90
30473;DHT22;17263;48.160;11.452;2023-04-25T12:22:44;10.50;99.90
30473;DHT22;17263;48.160;11.452;2023-04-25T12:25:11;10.50;99.90
30473;DHT22;17263;48.160;11.452;2023-04-25T12:27:39;10.50;99.90
30473;DHT22;17263;48.160;11.452;2023-04-25T12:30:09;10.60;99.90
30473;DHT22;17263;48.160;11.452;2023-04-25T12:32:37;10.70;99.90
30473;DHT22;17263;48.160;11.452;2023-04-25T12:35:05;10.80;99.90
30473;DHT22;17263;48.160;11.452;2023-04-25T12:37:32;10.90;99.90
30473;DHT22;17263;48.160;11.452;2023-04-25T12:39:58;11.10;99.90
30473;DHT22;17263;48.160;11.452;2023-04-25T12:42:24;11.10;99.90
30473;DHT22;17263;48.160;11.452;2023-04-25T12:44:50;11.10;99.90
30473;DHT22;17263;48.160;11.452;2023-04-25T12:47:16;11.00;99.90
30473;DHT22;17263;48.160;11.452;2023-04-25T12:49:42;10.90;99.90
30473;DHT22;17263;48.160;11.452;2023-04-25T12:52:08;10.80;99.90
30473;DHT22;17263;48.160;11.452;2023-04-25T12:54:34;10.70;99.90
30473;DHT22;17263;48.160;11.452;2023-04-25T12:57:01;10.70;99.90
30473;DHT22;17263;48.160;11.452;2023-04-25T12:59:28;10.70;99.90
30473;DHT22;17263;48.160;11.452;2023-04-25T13:01:54;10.50;99.90
30473;DHT22;17263;48.160;11.452;2023-04-25T13:04:20;10.50;99.90
30473;DHT22;17263;48.160;11.452;2023-04-25T13:06:47;10.40;99.90
30473;DHT22;17263;48.160;11.452;2023-04-25T13:09:13;10.40;99.90
30473;DHT22;17263;48.160;11.452;2023-04-25T13:11:39;10.30;99.90
30473;DHT22;17263;48.160;11.452;2023-04-25T13:14:06;10.30;99.90
30473;DHT22;17263;48.160;11.452;2023-04-25T13:16:32;10.10;99.90
30473;DHT22;17263;48.160;11.452;2023-04-25T13:18:58;10.10;99.90
30473;DHT22;17263;48.160;11.452;2023-04-25T13:21:24;10.20;99.90
30473;DHT22;17263;48.160;11.452;2023-04-25T13:23:51;10.20;99.90
30473;DHT22;17263;48.160;11.452;2023-04-25T13:26:17;10.20;99.90
30473;DHT22;17263;48.160;11.452;2023-04-25T13:28:43;10.00;99.90
30473;DHT22;17263;48.160;11.452;2023-04-25T13:31:09;9.90;99.90
30473;DHT22;17263;48.160;11.452;2023-04-25T13:33:35;9.80;99.90
30473;DHT22;17263;48.160;11.452;2023-04-25T13:36:01;9.60;99.90
30473;DHT22;17263;48.160;11.452;2023-04-25T13:38:27;9.40;99.90
30473;DHT22;17263;48.160;11.452;2023-04-25T13:40:53;9.50;99.90
30473;DHT22;17263;48.160;11.452;2023-04-25T13:43:20;9.60;99.90
30473;DHT22;17263;48.160;11.452;2023-04-25T13:45:48;9.60;99.90
30473;DHT22;17263;48.160;11.452;2023-04-25T13:48:14;9.70;99.90
30473;DHT22;17263;48.160;11.452;2023-04-25T13:50:40;9.70;99.90
30473;DHT22;17263;48.160;11.452;2023-04-25T13:53:06;9.70;99.90
30473;DHT22;17263;48.160;11.452;2023-04-25T13:55:34;9.70;99.90
30473;DHT22;17263;48.160;11.452;2023-04-25T13:58:01;9.60;99.90
30473;DHT22;17263;48.160;11.452;2023-04-25T14:00:34;9.60;99.90
30473;DHT22;17263;48.160;11.452;2023-04-25T14:03:01;9.50;99.90
30473;DHT22;17263;48.160;11.452;2023-04-25T14:05:30;9.40;99.90
30473;DHT22;17263;48.160;11.452;2023-04-25T14:08:00;9.40;99.90
30473;DHT22;17263;48.160;11.452;2023-04-25T14:10:26;9.40;99.90
30473;DHT22;17263;48.160;11.452;2023-04-25T14:12:53;9.40;99.90
30473;DHT22;17263;48.160;11.452;2023-04-25T14:15:19;9.60;99.90
30473;DHT22;17263;48.160;11.452;2023-04-25T14:17:46;9.60;99.90
30473;DHT22;17263;48.160;11.452;2023-04-25T14:20:14;9.70;99.90
30473;DHT22;17263;48.160;11.452;2023-04-25T14:22:41;9.90;99.90
30473;DHT22;17263;48.160;11.452;2023-04-25T14:25:09;10.10;99.90
30473;DHT22;17263;48.160;11.452;2023-04-25T14:27:36;10.20;99.90
30473;DHT22;17263;48.160;11.452;2023-04-25T14:30:03;10.40;99.90
30473;DHT22;17263;48.160;11.452;2023-04-25T14:32:30;10.40;99.90
30473;DHT22;17263;48.160;11.452;2023-04-25T14:34:58;10.50;99.90
30473;DHT22;17263;48.160;11.452;2023-04-25T14:37:24;10.60;99.90
30473;DHT22;17263;48.160;11.452;2023-04-25T14:39:51;10.60;99.90
30473;DHT22;17263;48.160;11.452;2023-04-25T14:42:17;10.50;99.90
30473;DHT22;17263;48.160;11.452;2023-04-25T14:44:43;10.40;99.90
30473;DHT22;17263;48.160;11.452;2023-04-25T14:47:09;10.40;99.90
30473;DHT22;17263;48.160;11.452;2023-04-25T14:49:35;10.40;99.90
30473;DHT22;17263;48.160;11.452;2023-04-25T14:52:01;10.40;99.90
30473;DHT22;17263;48.160;11.452;2023-04-25T14:54:27;10.40;99.90
30473;DHT22;17263;48.160;11.452;2023-04-25T14:56:53;10.50;99.90
30473;DHT22;17263;48.160;11.452;2023-04-25T14:59:19;10.50;99.90
30473;DHT22;17263;48.160;11.452;2023-04-25T15:01:46;10.50;99.90
30473;DHT22;17263;48.160;11.452;2023-04-25T15:04:12;10.40;99.90
30473;DHT22;17263;48.160;11.452;2023-04-25T15:06:38;10.40;99.90
30473;DHT22;17263;48.160;11.452;2023-04-25T15:09:04;10.40;99.90
30473;DHT22;17263;48.160;11.452;2023-04-25T15:11:30;10.30;99.90
30473;DHT22;17263;48.160;11.452;2023-04-25T15:13:56;10.40;99.90
30473;DHT22;17263;48.160;11.452;2023-04-25T15:16:22;10.40;99.90
30473;DHT22;17263;48.160;11.452;2023-04-25T15:18:48;10.40;99.90
30473;DHT22;17263;48.160;11.452;2023-04-25T15:21:15;10.40;99.90
30473;DHT22;17263;48.160;11.452;2023-04-25T15:23:42;10.40;99.90
30473;DHT22;17263;48.160;11.452;2023-04-25T15:26:08;10.50;99.90
30473;DHT22;17263;48.160;11.452;2023-04-25T15:28:34;10.60;99.90